createdAt,value
2023-09-09T00:01:32.799Z,17.10
2023-09-09T00:04:00.940Z,17.00
2023-09-09T00:06:29.039Z,17.00
2023-09-09T00:09:00.997Z,16.90
2023-09-09T00:11:28.912Z,16.90
2023-09-09T00:13:56.784Z,16.90
2023-09-09T00:16:27.845Z,16.80
2023-09-09T00:18:58.245Z,16.80
2023-09-09T00:21:26.220Z,16.80
2023-09-09T00:23:54.311Z,16.70
2023-09-09T00:26:22.517Z,16.80
2023-09-09T00:28:50.479Z,16.80
2023-09-09T00:31:18.458Z,16.70
2023-09-09T00:33:47.662Z,16.70
2023-09-09T00:36:16.425Z,16.60
2023-09-09T00:38:44.384Z,16.60
2023-09-09T00:41:20.093Z,16.50
2023-09-09T00:43:48.094Z,16.50
2023-09-09T00:46:19.142Z,16.50
2023-09-09T00:48:50.343Z,16.40
2023-09-09T00:51:18.309Z,16.40
2023-09-09T00:53:47.113Z,16.30
2023-09-09T00:56:15.017Z,16.30
2023-09-09T00:58:43.203Z,16.30
2023-09-09T01:01:13.556Z,16.20
2023-09-09T01:03:41.752Z,16.10
2023-09-09T01:06:11.649Z,16.20
2023-09-09T01:08:39.946Z,16.10
2023-09-09T01:11:07.937Z,16.10
2023-09-09T01:13:36.824Z,16.10
2023-09-09T01:16:05.486Z,16.00
2023-09-09T01:18:35.865Z,15.90
2023-09-09T01:21:06.758Z,16.00
2023-09-09T01:23:36.626Z,16.00
2023-09-09T01:26:04.994Z,16.00
2023-09-09T01:28:33.308Z,15.90
2023-09-09T01:31:01.315Z,15.80
2023-09-09T01:33:29.389Z,15.90
2023-09-09T01:35:57.307Z,15.70
2023-09-09T01:38:25.199Z,15.70
2023-09-09T01:40:54.449Z,15.70
2023-09-09T01:43:22.475Z,15.80
2023-09-09T01:45:51.408Z,15.80
2023-09-09T01:48:19.407Z,15.80
2023-09-09T01:50:47.843Z,15.70
2023-09-09T01:53:16.127Z,15.70
2023-09-09T01:55:44.064Z,15.60
2023-09-09T01:58:13.455Z,15.60
2023-09-09T02:00:41.532Z,15.60
2023-09-09T02:03:09.618Z,15.60
2023-09-09T02:05:37.692Z,15.50
2023-09-09T02:08:05.984Z,15.50
2023-09-09T02:10:36.532Z,15.40
2023-09-09T02:13:05.476Z,15.40
2023-09-09T02:15:34.905Z,15.30
2023-09-09T02:18:03.627Z,15.40
2023-09-09T02:20:31.567Z,15.40
2023-09-09T02:22:59.971Z,15.30
2023-09-09T02:25:27.839Z,15.30
2023-09-09T02:27:55.752Z,15.30
2023-09-09T02:30:23.912Z,15.30
2023-09-09T02:32:53.305Z,15.20
2023-09-09T02:35:21.355Z,15.30
2023-09-09T02:37:49.463Z,15.20
2023-09-09T02:40:17.535Z,15.30
2023-09-09T02:42:45.585Z,15.20
2023-09-09T02:45:13.589Z,15.20
2023-09-09T02:47:41.503Z,15.20
2023-09-09T02:50:12.636Z,15.20
2023-09-09T02:52:40.810Z,15.20
2023-09-09T02:55:09.422Z,15.20
2023-09-09T02:57:37.568Z,15.20
2023-09-09T03:00:08.418Z,15.30
2023-09-09T03:02:37.549Z,15.10
2023-09-09T03:05:06.171Z,15.10
2023-09-09T03:07:35.361Z,15.00
2023-09-09T03:10:03.648Z,15.00
2023-09-09T03:12:31.673Z,14.90
2023-09-09T03:14:59.639Z,14.80
2023-09-09T03:17:32.010Z,14.80
2023-09-09T03:19:59.874Z,14.80
2023-09-09T03:22:27.784Z,14.90
2023-09-09T03:24:57.569Z,14.90
2023-09-09T03:27:25.517Z,14.90
2023-09-09T03:29:53.553Z,14.90
2023-09-09T03:32:21.781Z,14.90
2023-09-09T03:34:49.810Z,14.90
2023-09-09T03:37:17.733Z,14.90
2023-09-09T03:39:45.839Z,14.90
2023-09-09T03:42:15.433Z,14.90
2023-09-09T03:44:43.839Z,14.90
2023-09-09T03:47:11.730Z,14.80
2023-09-09T03:49:39.655Z,14.70
2023-09-09T03:52:07.905Z,14.80
2023-09-09T03:54:36.194Z,14.70
2023-09-09T03:57:04.394Z,14.70
2023-09-09T03:59:34.223Z,14.70
2023-09-09T04:02:02.076Z,14.70
2023-09-09T04:04:30.178Z,14.70
2023-09-09T04:06:58.286Z,14.70
2023-09-09T04:09:27.858Z,14.60
2023-09-09T04:11:56.293Z,14.60
2023-09-09T04:14:24.146Z,14.50
2023-09-09T04:16:53.404Z,14.40
2023-09-09T04:19:21.384Z,14.30
2023-09-09T04:21:52.513Z,14.30
2023-09-09T04:24:20.411Z,14.30
2023-09-09T04:26:48.273Z,14.30
2023-09-09T04:29:16.383Z,14.30
2023-09-09T04:31:44.847Z,14.30
2023-09-09T04:34:16.014Z,14.10
2023-09-09T04:36:46.538Z,14.20
2023-09-09T04:39:16.489Z,14.10
2023-09-09T04:41:45.051Z,14.10
2023-09-09T04:44:13.821Z,14.00
2023-09-09T04:46:41.875Z,14.00
2023-09-09T04:49:09.842Z,14.00
2023-09-09T04:51:39.256Z,14.00
2023-09-09T04:54:07.496Z,14.00
2023-09-09T04:56:35.560Z,14.10
2023-09-09T04:59:03.466Z,14.20
2023-09-09T05:01:31.465Z,14.30
2023-09-09T05:03:59.624Z,14.30
2023-09-09T05:06:27.555Z,14.30
2023-09-09T05:08:56.864Z,14.30
2023-09-09T05:11:25.016Z,14.30
2023-09-09T05:13:52.905Z,14.30
2023-09-09T05:16:20.815Z,14.30
2023-09-09T05:18:48.743Z,14.30
2023-09-09T05:21:16.647Z,14.40
2023-09-09T05:23:44.638Z,14.40
2023-09-09T05:26:14.128Z,14.30
2023-09-09T05:28:41.994Z,14.30
2023-09-09T05:31:09.865Z,14.40
2023-09-09T05:33:38.372Z,14.40
2023-09-09T05:36:07.331Z,14.30
2023-09-09T05:38:36.514Z,14.30
2023-09-09T05:41:04.594Z,14.40
2023-09-09T05:43:33.929Z,14.40
2023-09-09T05:46:02.441Z,14.40
2023-09-09T05:48:31.949Z,14.40
2023-09-09T05:51:00.443Z,14.40
2023-09-09T05:53:28.564Z,14.30
2023-09-09T05:55:56.596Z,14.40
2023-09-09T05:58:24.492Z,14.40
2023-09-09T06:00:54.106Z,14.60
2023-09-09T06:03:22.709Z,15.10
2023-09-09T06:05:51.693Z,15.70
2023-09-09T06:08:19.712Z,16.50
2023-09-09T06:10:48.213Z,16.50
2023-09-09T06:13:16.356Z,16.90
2023-09-09T06:15:44.276Z,17.10
2023-09-09T06:18:13.622Z,17.50
2023-09-09T06:20:47.111Z,17.40
2023-09-09T06:23:14.945Z,17.50
2023-09-09T06:25:43.216Z,17.30
2023-09-09T06:28:11.179Z,17.50
2023-09-09T06:30:44.075Z,17.60
2023-09-09T06:33:13.399Z,17.80
2023-09-09T06:35:49.535Z,18.00
2023-09-09T06:38:17.607Z,17.80
2023-09-09T06:40:46.917Z,17.70
2023-09-09T06:43:15.857Z,17.80
2023-09-09T06:45:43.851Z,17.90
2023-09-09T06:48:18.124Z,18.00
2023-09-09T06:50:48.013Z,17.60
2023-09-09T06:53:16.523Z,17.50
2023-09-09T06:55:47.020Z,17.70
2023-09-09T06:58:15.342Z,17.80
2023-09-09T07:00:44.433Z,17.90
2023-09-09T07:03:13.806Z,18.10
2023-09-09T07:05:41.853Z,18.20
2023-09-09T07:08:09.818Z,18.40
2023-09-09T07:10:37.938Z,18.60
2023-09-09T07:13:06.141Z,18.80
2023-09-09T07:15:37.166Z,18.80
2023-09-09T07:18:05.742Z,19.00
2023-09-09T07:20:35.229Z,19.10
2023-09-09T07:23:03.152Z,19.20
2023-09-09T07:25:31.607Z,19.50
2023-09-09T07:28:00.089Z,19.30
2023-09-09T07:30:28.744Z,19.30
2023-09-09T07:32:56.672Z,19.30
2023-09-09T07:35:24.896Z,19.30
2023-09-09T07:37:54.184Z,19.70
2023-09-09T07:40:22.160Z,19.70
2023-09-09T07:42:51.212Z,19.70
2023-09-09T07:45:20.694Z,19.80
2023-09-09T07:47:48.653Z,19.90
2023-09-09T07:50:16.681Z,20.10
2023-09-09T07:52:45.019Z,20.20
2023-09-09T07:55:14.409Z,20.60
2023-09-09T07:57:42.342Z,20.90
2023-09-09T08:00:10.985Z,21.00
2023-09-09T08:02:39.006Z,21.00
2023-09-09T08:05:08.886Z,21.30
2023-09-09T08:07:36.868Z,21.50
2023-09-09T08:10:05.111Z,21.70
2023-09-09T08:12:34.381Z,21.70
2023-09-09T08:15:07.238Z,22.00
2023-09-09T08:17:35.356Z,22.30
2023-09-09T08:20:08.054Z,22.50
2023-09-09T08:22:36.570Z,22.70
2023-09-09T08:25:05.920Z,22.40
2023-09-09T08:27:35.277Z,22.80
2023-09-09T08:30:03.382Z,23.20
2023-09-09T08:32:31.429Z,23.30
2023-09-09T08:35:00.389Z,23.40
2023-09-09T08:37:28.427Z,23.40
2023-09-09T08:39:57.198Z,23.60
2023-09-09T08:42:36.949Z,23.80
2023-09-09T08:45:14.979Z,23.70
2023-09-09T08:47:46.923Z,23.80
2023-09-09T08:50:18.042Z,23.90
2023-09-09T08:52:48.729Z,24.10
2023-09-09T08:55:17.288Z,24.30
2023-09-09T08:57:45.606Z,24.50
2023-09-09T09:00:16.531Z,24.90
2023-09-09T09:02:44.690Z,25.20
2023-09-09T09:05:14.079Z,25.50
2023-09-09T09:07:42.131Z,25.40
2023-09-09T09:10:11.022Z,25.40
2023-09-09T09:12:41.381Z,25.30
2023-09-09T09:15:12.438Z,25.20
2023-09-09T09:17:43.235Z,25.70
2023-09-09T09:20:29.211Z,26.10
2023-09-09T09:23:07.949Z,26.20
2023-09-09T09:25:38.608Z,26.20
2023-09-09T09:28:07.415Z,26.50
2023-09-09T09:30:36.109Z,26.70
2023-09-09T09:33:06.105Z,26.80
2023-09-09T09:35:41.442Z,27.00
2023-09-09T09:38:14.492Z,27.10
2023-09-09T09:40:43.812Z,27.20
2023-09-09T09:43:19.626Z,27.20
2023-09-09T09:45:47.965Z,27.30
2023-09-09T09:48:28.590Z,27.50
2023-09-09T09:50:57.034Z,27.80
2023-09-09T09:53:26.151Z,27.70
2023-09-09T09:55:54.311Z,27.60
2023-09-09T09:58:24.449Z,27.80
2023-09-09T10:00:54.586Z,27.80
2023-09-09T10:03:25.603Z,27.80
2023-09-09T10:05:56.079Z,28.00
2023-09-09T10:08:30.655Z,28.20
2023-09-09T10:11:05.182Z,28.30
2023-09-09T10:13:39.167Z,28.40
2023-09-09T10:16:13.057Z,28.50
2023-09-09T10:18:42.475Z,28.60
2023-09-09T10:21:14.913Z,28.70
2023-09-09T10:23:47.996Z,28.70
2023-09-09T10:26:20.892Z,28.70
2023-09-09T10:28:49.785Z,29.10
2023-09-09T10:31:20.363Z,29.10
2023-09-09T10:33:49.729Z,29.30
2023-09-09T10:36:20.207Z,29.30
2023-09-09T10:38:48.277Z,29.20
2023-09-09T10:41:17.901Z,29.20
2023-09-09T10:43:46.046Z,29.40
2023-09-09T10:46:14.890Z,29.60
2023-09-09T10:48:46.584Z,29.50
2023-09-09T10:51:16.855Z,29.60
2023-09-09T10:53:46.888Z,29.70
2023-09-09T10:56:25.067Z,29.90
2023-09-09T10:58:53.513Z,29.90
2023-09-09T11:01:25.860Z,30.00
2023-09-09T11:03:54.610Z,29.70
2023-09-09T11:06:25.474Z,30.00
2023-09-09T11:08:58.035Z,30.40
2023-09-09T11:11:27.874Z,30.40
2023-09-09T11:14:04.308Z,30.40
2023-09-09T11:16:34.669Z,30.30
2023-09-09T11:19:05.679Z,30.10
2023-09-09T11:21:38.327Z,30.30
2023-09-09T11:24:09.005Z,29.90
2023-09-09T11:26:40.936Z,30.40
2023-09-09T11:29:17.525Z,30.50
2023-09-09T11:31:54.692Z,30.70
2023-09-09T11:34:33.948Z,30.00
2023-09-09T11:37:03.172Z,29.70
2023-09-09T11:39:32.529Z,30.40
2023-09-09T11:42:04.130Z,30.90
2023-09-09T11:44:39.704Z,31.20
2023-09-09T11:47:07.881Z,31.30
2023-09-09T11:49:39.091Z,31.20
2023-09-09T11:52:07.493Z,31.10
2023-09-09T11:54:37.810Z,30.70
2023-09-09T11:57:06.959Z,30.80
2023-09-09T11:59:48.254Z,30.20
2023-09-09T12:02:20.660Z,30.10
2023-09-09T12:04:56.298Z,30.30
2023-09-09T12:07:27.742Z,30.60
2023-09-09T12:09:58.335Z,30.60
2023-09-09T12:12:27.207Z,31.00
2023-09-09T12:14:57.174Z,30.60
2023-09-09T12:17:25.377Z,30.20
2023-09-09T12:19:57.063Z,30.40
2023-09-09T12:22:35.535Z,30.40
2023-09-09T12:25:08.398Z,30.90
2023-09-09T12:27:44.072Z,30.60
2023-09-09T12:30:33.444Z,30.20
2023-09-09T12:33:10.616Z,30.70
2023-09-09T12:35:40.100Z,31.30
2023-09-09T12:38:08.370Z,31.60
2023-09-09T12:40:49.404Z,31.80
2023-09-09T12:43:18.474Z,31.70
2023-09-09T12:45:50.805Z,31.60
2023-09-09T12:48:19.308Z,31.60
2023-09-09T12:50:47.383Z,31.70
2023-09-09T12:53:15.699Z,31.40
2023-09-09T12:55:43.716Z,31.60
2023-09-09T12:58:14.835Z,31.40
2023-09-09T13:00:42.884Z,31.60
2023-09-09T13:03:11.214Z,31.80
2023-09-09T13:05:39.325Z,31.80
2023-09-09T13:08:07.509Z,31.80
2023-09-09T13:10:35.570Z,31.90
2023-09-09T13:13:03.660Z,31.40
2023-09-09T13:15:33.017Z,30.80
2023-09-09T13:18:01.217Z,30.80
2023-09-09T13:20:29.156Z,31.10
2023-09-09T13:22:57.766Z,31.50
2023-09-09T13:25:25.991Z,31.60
2023-09-09T13:27:54.198Z,31.00
2023-09-09T13:30:22.256Z,31.20
2023-09-09T13:32:53.835Z,31.30
2023-09-09T13:35:22.656Z,31.40
2023-09-09T13:37:50.758Z,31.30
2023-09-09T13:40:18.950Z,31.20
2023-09-09T13:42:47.065Z,31.20
2023-09-09T13:45:15.399Z,31.30
2023-09-09T13:47:43.812Z,31.30
2023-09-09T13:50:13.411Z,31.30
2023-09-09T13:52:41.555Z,31.30
2023-09-09T13:55:09.857Z,31.40
2023-09-09T13:57:37.842Z,31.30
2023-09-09T14:00:07.094Z,31.20
2023-09-09T14:02:35.215Z,31.00
2023-09-09T14:05:03.460Z,31.10
2023-09-09T14:07:32.643Z,30.90
2023-09-09T14:10:00.663Z,31.10
2023-09-09T14:12:28.683Z,31.20
2023-09-09T14:14:56.765Z,31.20
2023-09-09T14:17:26.086Z,31.00
2023-09-09T14:19:54.865Z,30.70
2023-09-09T14:22:22.787Z,30.80
2023-09-09T14:24:52.066Z,30.90
2023-09-09T14:27:20.134Z,30.90
2023-09-09T14:29:48.368Z,30.90
2023-09-09T14:32:17.174Z,30.90
2023-09-09T14:34:45.170Z,30.90
2023-09-09T14:37:13.144Z,30.80
2023-09-09T14:39:41.121Z,30.80
2023-09-09T14:42:10.340Z,30.70
2023-09-09T14:44:38.244Z,30.80
2023-09-09T14:47:07.451Z,30.70
2023-09-09T14:49:38.380Z,30.70
2023-09-09T14:52:08.139Z,30.60
2023-09-09T14:54:36.461Z,30.60
2023-09-09T14:57:04.948Z,30.50
2023-09-09T14:59:35.379Z,30.40
2023-09-09T15:02:03.835Z,30.30
2023-09-09T15:04:32.149Z,30.20
2023-09-09T15:07:00.077Z,29.70
2023-09-09T15:09:27.983Z,29.80
2023-09-09T15:11:55.837Z,29.70
2023-09-09T15:14:23.827Z,29.70
2023-09-09T15:16:54.343Z,29.70
2023-09-09T15:19:22.331Z,29.40
2023-09-09T15:21:50.279Z,29.10
2023-09-09T15:24:18.186Z,29.00
2023-09-09T15:26:46.262Z,28.70
2023-09-09T15:29:14.177Z,28.70
2023-09-09T15:31:42.141Z,28.70
2023-09-09T15:34:11.443Z,28.50
2023-09-09T15:36:39.929Z,28.60
2023-09-09T15:39:11.380Z,28.60
2023-09-09T15:41:39.524Z,28.10
2023-09-09T15:44:08.581Z,27.90
2023-09-09T15:46:36.793Z,27.50
2023-09-09T15:49:04.922Z,27.30
2023-09-09T15:51:34.262Z,27.10
2023-09-09T15:54:02.931Z,27.20
2023-09-09T15:56:31.376Z,27.10
2023-09-09T15:59:04.444Z,27.10
2023-09-09T16:01:32.472Z,27.10
2023-09-09T16:04:00.598Z,27.10
2023-09-09T16:06:28.646Z,27.00
2023-09-09T16:08:58.088Z,26.80
2023-09-09T16:11:26.043Z,26.60
2023-09-09T16:13:54.462Z,26.50
2023-09-09T16:16:22.792Z,26.40
2023-09-09T16:18:50.801Z,26.40
2023-09-09T16:21:18.791Z,26.10
2023-09-09T16:23:46.701Z,25.80
2023-09-09T16:26:16.654Z,25.40
2023-09-09T16:28:49.513Z,25.10
2023-09-09T16:31:18.001Z,25.00
2023-09-09T16:33:45.947Z,24.80
2023-09-09T16:36:13.901Z,24.60
2023-09-09T16:38:41.867Z,24.40
2023-09-09T16:41:09.862Z,24.30
2023-09-09T16:43:39.341Z,24.30
2023-09-09T16:46:07.324Z,24.20
2023-09-09T16:48:35.349Z,24.20
2023-09-09T16:51:04.046Z,24.10
2023-09-09T16:53:32.243Z,24.00
2023-09-09T16:56:02.875Z,24.00
2023-09-09T16:58:31.631Z,23.80
2023-09-09T17:01:01.001Z,23.70
2023-09-09T17:03:29.119Z,23.60
2023-09-09T17:06:00.281Z,23.40
2023-09-09T17:08:30.176Z,23.30
2023-09-09T17:10:58.274Z,23.30
2023-09-09T17:13:26.253Z,23.20
2023-09-09T17:15:54.315Z,23.20
2023-09-09T17:18:24.446Z,23.10
2023-09-09T17:20:52.798Z,23.00
2023-09-09T17:23:20.687Z,22.80
2023-09-09T17:25:50.292Z,22.70
2023-09-09T17:28:19.381Z,22.70
2023-09-09T17:30:47.284Z,22.70
2023-09-09T17:33:17.827Z,22.70
2023-09-09T17:35:47.440Z,22.70
2023-09-09T17:38:15.383Z,22.60
2023-09-09T17:40:43.584Z,22.30
2023-09-09T17:43:11.644Z,22.20
2023-09-09T17:45:39.512Z,22.30
2023-09-09T17:48:07.819Z,22.30
2023-09-09T17:50:38.244Z,22.20
2023-09-09T17:53:07.849Z,22.20
2023-09-09T17:55:35.971Z,22.20
2023-09-09T17:58:05.478Z,22.30
2023-09-09T18:00:34.521Z,22.20
2023-09-09T18:03:02.486Z,22.20
2023-09-09T18:05:36.126Z,22.00
2023-09-09T18:08:04.804Z,21.80
2023-09-09T18:10:34.270Z,21.60
2023-09-09T18:13:03.592Z,21.50
2023-09-09T18:15:31.788Z,21.50
2023-09-09T18:18:00.084Z,21.50
2023-09-09T18:20:28.024Z,21.50
2023-09-09T18:22:56.026Z,21.40
2023-09-09T18:25:24.041Z,21.40
2023-09-09T18:27:53.358Z,21.30
2023-09-09T18:30:24.458Z,21.20
2023-09-09T18:32:52.545Z,21.10
2023-09-09T18:35:20.771Z,21.20
2023-09-09T18:37:48.858Z,21.30
2023-09-09T18:40:16.835Z,21.50
2023-09-09T18:42:44.726Z,21.50
2023-09-09T18:45:14.264Z,21.40
2023-09-09T18:47:42.268Z,21.40
2023-09-09T18:50:10.764Z,21.40
2023-09-09T18:52:38.709Z,21.40
2023-09-09T18:55:07.372Z,21.50
2023-09-09T18:57:35.508Z,21.50
2023-09-09T19:00:10.992Z,21.40
2023-09-09T19:02:41.056Z,21.40
2023-09-09T19:05:10.176Z,21.30
2023-09-09T19:07:39.869Z,21.30
2023-09-09T19:10:08.687Z,21.20
2023-09-09T19:12:36.738Z,21.10
2023-09-09T19:15:05.759Z,21.20
2023-09-09T19:17:35.087Z,21.20
2023-09-09T19:20:16.449Z,21.20
2023-09-09T19:22:44.896Z,20.90
2023-09-09T19:25:12.956Z,20.60
2023-09-09T19:27:40.857Z,20.40
2023-09-09T19:30:10.185Z,20.40
2023-09-09T19:32:38.224Z,20.30
2023-09-09T19:35:09.183Z,20.20
2023-09-09T19:37:37.355Z,20.10
2023-09-09T19:40:07.125Z,20.10
2023-09-09T19:42:35.125Z,20.10
2023-09-09T19:45:11.684Z,20.20
2023-09-09T19:47:40.162Z,20.20
2023-09-09T19:50:12.833Z,20.10
2023-09-09T19:52:41.073Z,20.00
2023-09-09T19:55:10.268Z,20.10
2023-09-09T19:57:38.164Z,20.20
2023-09-09T20:00:09.740Z,20.30
2023-09-09T20:02:37.712Z,20.20
2023-09-09T20:05:06.326Z,20.30
2023-09-09T20:07:36.028Z,20.20
2023-09-09T20:10:11.056Z,20.20
2023-09-09T20:12:39.341Z,20.20
2023-09-09T20:15:08.516Z,20.20
2023-09-09T20:17:36.480Z,20.30
2023-09-09T20:20:07.098Z,20.40
2023-09-09T20:22:36.551Z,20.30
2023-09-09T20:25:04.690Z,20.20
2023-09-09T20:27:32.703Z,20.20
2023-09-09T20:30:00.847Z,20.10
2023-09-09T20:32:29.309Z,20.00
2023-09-09T20:35:02.647Z,19.90
2023-09-09T20:37:39.605Z,19.90
2023-09-09T20:40:18.986Z,19.80
2023-09-09T20:42:56.651Z,19.80
2023-09-09T20:45:27.955Z,19.80
2023-09-09T20:47:56.525Z,19.70
2023-09-09T20:50:29.966Z,19.80
2023-09-09T20:52:59.574Z,19.80
2023-09-09T20:55:28.487Z,19.80
2023-09-09T20:57:56.695Z,19.70
2023-09-09T21:00:27.004Z,19.70
2023-09-09T21:02:57.223Z,19.60
2023-09-09T21:05:25.577Z,19.60
2023-09-09T21:07:55.578Z,19.70
2023-09-09T21:10:27.478Z,19.60
2023-09-09T21:12:58.484Z,19.50
2023-09-09T21:15:28.230Z,19.40
2023-09-09T21:17:56.488Z,19.40
2023-09-09T21:20:24.723Z,19.40
2023-09-09T21:22:53.913Z,19.30
2023-09-09T21:25:30.452Z,19.30
2023-09-09T21:28:00.137Z,19.20
2023-09-09T21:30:29.491Z,19.30
2023-09-09T21:33:00.214Z,19.20
2023-09-09T21:35:29.650Z,19.10
2023-09-09T21:37:58.030Z,19.10
2023-09-09T21:40:28.522Z,19.00
2023-09-09T21:42:57.996Z,19.00
2023-09-09T21:45:26.117Z,19.00
2023-09-09T21:47:58.719Z,19.10
2023-09-09T21:50:29.868Z,18.90
2023-09-09T21:52:59.958Z,18.80
2023-09-09T21:55:30.787Z,18.80
2023-09-09T21:58:00.500Z,18.80
2023-09-09T22:00:28.684Z,18.80
2023-09-09T22:02:56.873Z,18.70
2023-09-09T22:05:28.165Z,18.70
2023-09-09T22:08:04.399Z,18.60
2023-09-09T22:10:32.601Z,18.60
2023-09-09T22:13:02.233Z,18.60
2023-09-09T22:15:31.258Z,18.50
2023-09-09T22:17:59.501Z,18.60
2023-09-09T22:20:27.656Z,18.50
2023-09-09T22:22:55.889Z,18.40
2023-09-09T22:25:24.019Z,18.40
2023-09-09T22:27:52.413Z,18.30
2023-09-09T22:30:22.045Z,18.30
2023-09-09T22:32:57.932Z,18.30
2023-09-09T22:35:26.984Z,18.30
2023-09-09T22:38:02.950Z,18.30
2023-09-09T22:40:31.454Z,18.20
2023-09-09T22:42:59.858Z,18.20
2023-09-09T22:45:33.353Z,18.10
2023-09-09T22:48:01.369Z,18.10
2023-09-09T22:50:30.528Z,18.00
2023-09-09T22:53:00.370Z,18.00
2023-09-09T22:55:28.685Z,18.00
2023-09-09T22:57:56.853Z,18.00
2023-09-09T23:00:26.803Z,18.00
2023-09-09T23:02:58.909Z,17.90
2023-09-09T23:05:28.888Z,17.70
2023-09-09T23:07:59.102Z,17.70
2023-09-09T23:10:29.727Z,17.70
2023-09-09T23:12:57.786Z,17.60
2023-09-09T23:15:26.500Z,17.50
2023-09-09T23:17:58.179Z,17.50
2023-09-09T23:20:32.625Z,17.60
2023-09-09T23:23:00.914Z,17.50
2023-09-09T23:25:29.459Z,17.50
2023-09-09T23:27:57.861Z,17.40
2023-09-09T23:30:26.632Z,17.40
2023-09-09T23:32:58.302Z,17.40
2023-09-09T23:35:26.542Z,17.30
2023-09-09T23:37:54.628Z,17.30
2023-09-09T23:40:22.774Z,17.30
2023-09-09T23:42:50.857Z,17.40
2023-09-09T23:45:19.139Z,17.40
2023-09-09T23:47:47.312Z,17.30
2023-09-09T23:50:16.967Z,17.30
2023-09-09T23:52:44.956Z,17.20
2023-09-09T23:55:12.956Z,17.20
2023-09-09T23:57:44.139Z,17.20
